sensor_id;sensor_type;location;lat;lon;timestamp;pressure;altitude;pressure_sealevel;temperature;humidity
62800;BME280;48842;51.046;13.796;2024-03-07T00:00:27;101218.78;;;8.19;nan
62800;BME280;48842;51.046;13.796;2024-03-07T00:02:53;101225.75;;;8.20;nan
62800;BME280;48842;51.046;13.796;2024-03-07T00:05:20;101223.00;;;8.16;nan
62800;BME280;48842;51.046;13.796;2024-03-07T00:07:46;101225.41;;;8.08;nan
62800;BME280;48842;51.046;13.796;2024-03-07T00:10:12;101227.00;;;8.03;nan
62800;BME280;48842;51.046;13.796;2024-03-07T00:12:38;101222.75;;;8.07;nan
62800;BME280;48842;51.046;13.796;2024-03-07T00:15:06;101214.94;;;8.07;nan
62800;BME280;48842;51.046;13.796;2024-03-07T00:17:32;101217.50;;;8.05;nan
62800;BME280;48842;51.046;13.796;2024-03-07T00:19:57;101218.50;;;8.10;nan
62800;BME280;48842;51.046;13.796;2024-03-07T00:22:23;101209.94;;;8.14;nan
62800;BME280;48842;51.046;13.796;2024-03-07T00:24:48;101214.53;;;8.23;nan
62800;BME280;48842;51.046;13.796;2024-03-07T00:27:14;101211.94;;;8.25;nan
62800;BME280;48842;51.046;13.796;2024-03-07T00:29:42;101209.41;;;8.28;nan
62800;BME280;48842;51.046;13.796;2024-03-07T00:32:08;101210.44;;;8.33;nan
62800;BME280;48842;51.046;13.796;2024-03-07T00:34:34;101207.09;;;8.37;nan
62800;BME280;48842;51.046;13.796;2024-03-07T00:36:59;101201.84;;;8.37;nan
62800;BME280;48842;51.046;13.796;2024-03-07T00:39:25;101200.84;;;8.32;nan
62800;BME280;48842;51.046;13.796;2024-03-07T00:41:50;101205.16;;;8.30;nan
62800;BME280;48842;51.046;13.796;2024-03-07T00:44:16;101200.00;;;8.33;nan
62800;BME280;48842;51.046;13.796;2024-03-07T00:46:41;101199.16;;;8.34;nan
62800;BME280;48842;51.046;13.796;2024-03-07T00:49:07;101198.38;;;8.38;nan
62800;BME280;48842;51.046;13.796;2024-03-07T00:51:32;101194.94;;;8.39;nan
62800;BME280;48842;51.046;13.796;2024-03-07T00:53:57;101193.13;;;8.36;nan
62800;BME280;48842;51.046;13.796;2024-03-07T00:56:25;101185.22;;;8.33;nan
62800;BME280;48842;51.046;13.796;2024-03-07T00:58:51;101183.34;;;8.29;nan
62800;BME280;48842;51.046;13.796;2024-03-07T01:01:17;101188.56;;;8.29;nan
62800;BME280;48842;51.046;13.796;2024-03-07T01:03:43;101184.25;;;8.30;nan
62800;BME280;48842;51.046;13.796;2024-03-07T01:06:09;101181.66;;;8.30;nan
62800;BME280;48842;51.046;13.796;2024-03-07T01:08:38;101180.63;;;8.25;nan
62800;BME280;48842;51.046;13.796;2024-03-07T01:11:04;101180.63;;;8.25;nan
62800;BME280;48842;51.046;13.796;2024-03-07T01:13:37;101177.16;;;8.24;nan
62800;BME280;48842;51.046;13.796;2024-03-07T01:16:03;101178.88;;;8.24;nan
62800;BME280;48842;51.046;13.796;2024-03-07T01:18:28;101178.84;;;8.22;nan
62800;BME280;48842;51.046;13.796;2024-03-07T01:20:54;101177.94;;;8.21;nan
62800;BME280;48842;51.046;13.796;2024-03-07T01:23:20;101181.50;;;8.24;nan
62800;BME280;48842;51.046;13.796;2024-03-07T01:25:45;101172.91;;;8.29;nan
62800;BME280;48842;51.046;13.796;2024-03-07T01:28:10;101172.94;;;8.31;nan
62800;BME280;48842;51.046;13.796;2024-03-07T01:30:37;101179.00;;;8.28;nan
62800;BME280;48842;51.046;13.796;2024-03-07T01:33:03;101176.44;;;8.30;nan
62800;BME280;48842;51.046;13.796;2024-03-07T01:35:28;101166.94;;;8.33;nan
62800;BME280;48842;51.046;13.796;2024-03-07T01:37:54;101167.06;;;8.38;nan
62800;BME280;48842;51.046;13.796;2024-03-07T01:40:19;101170.63;;;8.40;nan
62800;BME280;48842;51.046;13.796;2024-03-07T01:42:48;101165.31;;;8.37;nan
62800;BME280;48842;51.046;13.796;2024-03-07T01:45:13;101169.66;;;8.38;nan
62800;BME280;48842;51.046;13.796;2024-03-07T01:47:38;101172.38;;;8.41;nan
62800;BME280;48842;51.046;13.796;2024-03-07T01:50:04;101171.56;;;8.44;nan
62800;BME280;48842;51.046;13.796;2024-03-07T01:52:30;101169.81;;;8.43;nan
62800;BME280;48842;51.046;13.796;2024-03-07T01:54:56;101164.59;;;8.43;nan
62800;BME280;48842;51.046;13.796;2024-03-07T01:57:21;101166.41;;;8.45;nan
62800;BME280;48842;51.046;13.796;2024-03-07T01:59:47;101162.16;;;8.49;nan
62800;BME280;48842;51.046;13.796;2024-03-07T02:02:12;101153.44;;;8.48;nan
62800;BME280;48842;51.046;13.796;2024-03-07T02:04:38;101154.28;;;8.47;nan
62800;BME280;48842;51.046;13.796;2024-03-07T02:07:03;101160.44;;;8.49;nan
62800;BME280;48842;51.046;13.796;2024-03-07T02:09:29;101162.13;;;8.47;nan
62800;BME280;48842;51.046;13.796;2024-03-07T02:11:54;101165.53;;;8.45;nan
62800;BME280;48842;51.046;13.796;2024-03-07T02:14:19;101162.13;;;8.47;nan
62800;BME280;48842;51.046;13.796;2024-03-07T02:16:44;101157.78;;;8.48;nan
62800;BME280;48842;51.046;13.796;2024-03-07T02:19:14;101154.22;;;8.44;nan
62800;BME280;48842;51.046;13.796;2024-03-07T02:21:40;101150.59;;;8.41;nan
62800;BME280;48842;51.046;13.796;2024-03-07T02:24:05;101154.94;;;8.40;nan
62800;BME280;48842;51.046;13.796;2024-03-07T02:26:31;101147.06;;;8.38;nan
62800;BME280;48842;51.046;13.796;2024-03-07T02:28:56;101147.91;;;8.37;nan
62800;BME280;48842;51.046;13.796;2024-03-07T02:31:21;101142.66;;;8.36;nan
62800;BME280;48842;51.046;13.796;2024-03-07T02:34:00;101146.19;;;8.38;nan
62800;BME280;48842;51.046;13.796;2024-03-07T02:36:26;101141.97;;;8.43;nan
62800;BME280;48842;51.046;13.796;2024-03-07T02:38:51;101130.88;;;8.50;nan
62800;BME280;48842;51.046;13.796;2024-03-07T02:41:17;101120.56;;;8.56;nan
62800;BME280;48842;51.046;13.796;2024-03-07T02:43:42;101129.34;;;8.59;nan
62800;BME280;48842;51.046;13.796;2024-03-07T02:46:07;101123.28;;;8.61;nan
62800;BME280;48842;51.046;13.796;2024-03-07T02:48:32;101122.53;;;8.65;nan
62800;BME280;48842;51.046;13.796;2024-03-07T02:50:58;101119.13;;;8.68;nan
62800;BME280;48842;51.046;13.796;2024-03-07T02:53:24;101122.69;;;8.71;nan
62800;BME280;48842;51.046;13.796;2024-03-07T02:55:49;101132.22;;;8.69;nan
62800;BME280;48842;51.046;13.796;2024-03-07T02:58:14;101132.19;;;8.68;nan
62800;BME280;48842;51.046;13.796;2024-03-07T03:00:41;101139.06;;;8.66;nan
62800;BME280;48842;51.046;13.796;2024-03-07T03:03:06;101127.66;;;8.61;nan
62800;BME280;48842;51.046;13.796;2024-03-07T03:05:31;101136.25;;;8.56;nan
62800;BME280;48842;51.046;13.796;2024-03-07T03:07:57;101140.56;;;8.54;nan
62800;BME280;48842;51.046;13.796;2024-03-07T03:10:23;101129.09;;;8.49;nan
62800;BME280;48842;51.046;13.796;2024-03-07T03:12:54;101128.13;;;8.44;nan
62800;BME280;48842;51.046;13.796;2024-03-07T03:15:21;101136.72;;;8.42;nan
62800;BME280;48842;51.046;13.796;2024-03-07T03:17:47;101133.22;;;8.41;nan
62800;BME280;48842;51.046;13.796;2024-03-07T03:20:13;101126.31;;;8.43;nan
62800;BME280;48842;51.046;13.796;2024-03-07T03:22:52;101129.91;;;8.47;nan
62800;BME280;48842;51.046;13.796;2024-03-07T03:25:18;101129.09;;;8.49;nan
62800;BME280;48842;51.046;13.796;2024-03-07T03:27:43;101131.66;;;8.48;nan
62800;BME280;48842;51.046;13.796;2024-03-07T03:30:09;101134.13;;;8.43;nan
62800;BME280;48842;51.046;13.796;2024-03-07T03:32:38;101127.03;;;8.37;nan
62800;BME280;48842;51.046;13.796;2024-03-07T03:35:03;101119.97;;;8.33;nan
62800;BME280;48842;51.046;13.796;2024-03-07T03:37:29;101130.34;;;8.32;nan
62800;BME280;48842;51.046;13.796;2024-03-07T03:39:54;101125.13;;;8.32;nan
62800;BME280;48842;51.046;13.796;2024-03-07T03:42:20;101129.50;;;8.31;nan
62800;BME280;48842;51.046;13.796;2024-03-07T03:44:46;101126.84;;;8.30;nan
62800;BME280;48842;51.046;13.796;2024-03-07T03:47:11;101124.31;;;8.33;nan
62800;BME280;48842;51.046;13.796;2024-03-07T03:49:37;101119.13;;;8.34;nan
62800;BME280;48842;51.046;13.796;2024-03-07T03:52:02;101124.41;;;8.37;nan
62800;BME280;48842;51.046;13.796;2024-03-07T03:54:27;101118.47;;;8.43;nan
62800;BME280;48842;51.046;13.796;2024-03-07T03:56:53;101129.09;;;8.49;nan
62800;BME280;48842;51.046;13.796;2024-03-07T03:59:18;101117.91;;;8.53;nan
62800;BME280;48842;51.046;13.796;2024-03-07T04:01:43;101124.03;;;8.55;nan
62800;BME280;48842;51.046;13.796;2024-03-07T04:04:10;101124.13;;;8.59;nan
62800;BME280;48842;51.046;13.796;2024-03-07T04:06:35;101126.75;;;8.59;nan
62800;BME280;48842;51.046;13.796;2024-03-07T04:09:00;101124.13;;;8.59;nan
62800;BME280;48842;51.046;13.796;2024-03-07T04:11:26;101124.13;;;8.59;nan
62800;BME280;48842;51.046;13.796;2024-03-07T04:13:51;101127.63;;;8.59;nan
62800;BME280;48842;51.046;13.796;2024-03-07T04:16:17;101124.13;;;8.59;nan
62800;BME280;48842;51.046;13.796;2024-03-07T04:18:42;101122.28;;;8.54;nan
62800;BME280;48842;51.046;13.796;2024-03-07T04:21:07;101123.00;;;8.49;nan
62800;BME280;48842;51.046;13.796;2024-03-07T04:23:34;101121.97;;;8.44;nan
62800;BME280;48842;51.046;13.796;2024-03-07T04:26:00;101123.53;;;8.37;nan
62800;BME280;48842;51.046;13.796;2024-03-07T04:28:25;101120.81;;;8.32;nan
62800;BME280;48842;51.046;13.796;2024-03-07T04:30:50;101117.16;;;8.26;nan
62800;BME280;48842;51.046;13.796;2024-03-07T04:33:18;101123.97;;;8.20;nan
62800;BME280;48842;51.046;13.796;2024-03-07T04:35:44;101118.59;;;8.14;nan
62800;BME280;48842;51.046;13.796;2024-03-07T04:38:09;101121.91;;;8.09;nan
62800;BME280;48842;51.046;13.796;2024-03-07T04:40:41;101123.50;;;8.02;nan
62800;BME280;48842;51.046;13.796;2024-03-07T04:43:07;101127.69;;;7.97;nan
62800;BME280;48842;51.046;13.796;2024-03-07T04:45:33;101125.78;;;7.91;nan
62800;BME280;48842;51.046;13.796;2024-03-07T04:47:59;101127.44;;;7.88;nan
62800;BME280;48842;51.046;13.796;2024-03-07T04:50:24;101129.09;;;7.85;nan
62800;BME280;48842;51.046;13.796;2024-03-07T04:52:49;101130.75;;;7.82;nan
62800;BME280;48842;51.046;13.796;2024-03-07T04:55:15;101135.94;;;7.80;nan
62800;BME280;48842;51.046;13.796;2024-03-07T04:57:40;101137.56;;;7.77;nan
62800;BME280;48842;51.046;13.796;2024-03-07T05:00:07;101140.13;;;7.75;nan
62800;BME280;48842;51.046;13.796;2024-03-07T05:02:37;101141.91;;;7.76;nan
62800;BME280;48842;51.046;13.796;2024-03-07T05:05:02;101147.16;;;7.78;nan
62800;BME280;48842;51.046;13.796;2024-03-07T05:07:27;101141.16;;;7.80;nan
62800;BME280;48842;51.046;13.796;2024-03-07T05:09:52;101142.06;;;7.82;nan
62800;BME280;48842;51.046;13.796;2024-03-07T05:12:18;101140.31;;;7.81;nan
62800;BME280;48842;51.046;13.796;2024-03-07T05:14:43;101148.06;;;7.78;nan
62800;BME280;48842;51.046;13.796;2024-03-07T05:17:09;101150.50;;;7.74;nan
62800;BME280;48842;51.046;13.796;2024-03-07T05:19:35;101156.44;;;7.68;nan
62800;BME280;48842;51.046;13.796;2024-03-07T05:22:01;101152.75;;;7.60;nan
62800;BME280;48842;51.046;13.796;2024-03-07T05:24:27;101152.66;;;7.57;nan
62800;BME280;48842;51.046;13.796;2024-03-07T05:26:53;101158.66;;;7.54;nan
62800;BME280;48842;51.046;13.796;2024-03-07T05:29:19;101154.22;;;7.51;nan
62800;BME280;48842;51.046;13.796;2024-03-07T05:31:44;101162.00;;;7.50;nan
62800;BME280;48842;51.046;13.796;2024-03-07T05:34:13;101161.09;;;7.48;nan
62800;BME280;48842;51.046;13.796;2024-03-07T05:36:40;101158.34;;;7.43;nan
62800;BME280;48842;51.046;13.796;2024-03-07T05:39:16;101160.75;;;7.37;nan
62800;BME280;48842;51.046;13.796;2024-03-07T05:41:42;101164.13;;;7.33;nan
62800;BME280;48842;51.046;13.796;2024-03-07T05:44:10;101158.78;;;7.30;nan
62800;BME280;48842;51.046;13.796;2024-03-07T05:46:39;101161.31;;;7.27;nan
62800;BME280;48842;51.046;13.796;2024-03-07T05:49:09;101169.97;;;7.26;nan
62800;BME280;48842;51.046;13.796;2024-03-07T05:51:35;101175.16;;;7.24;nan
62800;BME280;48842;51.046;13.796;2024-03-07T05:54:00;101174.19;;;7.22;nan
62800;BME280;48842;51.046;13.796;2024-03-07T05:56:26;101175.84;;;7.19;nan
62800;BME280;48842;51.046;13.796;2024-03-07T05:58:52;101176.66;;;7.18;nan
62800;BME280;48842;51.046;13.796;2024-03-07T06:01:17;101180.94;;;7.15;nan
62800;BME280;48842;51.046;13.796;2024-03-07T06:03:44;101180.81;;;7.12;nan
62800;BME280;48842;51.046;13.796;2024-03-07T06:06:09;101188.53;;;7.09;nan
62800;BME280;48842;51.046;13.796;2024-03-07T06:08:36;101189.41;;;7.08;nan
62800;BME280;48842;51.046;13.796;2024-03-07T06:11:02;101183.28;;;7.08;nan
62800;BME280;48842;51.046;13.796;2024-03-07T06:13:27;101187.63;;;7.07;nan
62800;BME280;48842;51.046;13.796;2024-03-07T06:15:52;101181.59;;;7.08;nan
62800;BME280;48842;51.046;13.796;2024-03-07T06:18:18;101191.16;;;7.09;nan
62800;BME280;48842;51.046;13.796;2024-03-07T06:20:43;101189.44;;;7.10;nan
62800;BME280;48842;51.046;13.796;2024-03-07T06:23:09;101191.38;;;7.15;nan
62800;BME280;48842;51.046;13.796;2024-03-07T06:25:37;101194.13;;;7.20;nan
62800;BME280;48842;51.046;13.796;2024-03-07T06:28:06;101202.06;;;7.25;nan
62800;BME280;48842;51.046;13.796;2024-03-07T06:30:38;101206.59;;;7.30;nan
62800;BME280;48842;51.046;13.796;2024-03-07T06:33:05;101200.78;;;7.39;nan
62800;BME280;48842;51.046;13.796;2024-03-07T06:35:30;101194.06;;;7.47;nan
62800;BME280;48842;51.046;13.796;2024-03-07T06:37:56;101196.84;;;7.52;nan
62800;BME280;48842;51.046;13.796;2024-03-07T06:40:21;101198.63;;;7.55;nan
62800;BME280;48842;51.046;13.796;2024-03-07T06:42:48;101202.13;;;7.55;nan
62800;BME280;48842;51.046;13.796;2024-03-07T06:45:13;101198.63;;;7.55;nan
62800;BME280;48842;51.046;13.796;2024-03-07T06:47:38;101196.97;;;7.57;nan
62800;BME280;48842;51.046;13.796;2024-03-07T06:50:04;101199.66;;;7.60;nan
62800;BME280;48842;51.046;13.796;2024-03-07T06:52:29;101213.63;;;7.62;nan
62800;BME280;48842;51.046;13.796;2024-03-07T06:54:54;101203.28;;;7.65;nan
62800;BME280;48842;51.046;13.796;2024-03-07T06:57:20;101204.28;;;7.68;nan
62800;BME280;48842;51.046;13.796;2024-03-07T06:59:46;101196.66;;;7.76;nan
62800;BME280;48842;51.046;13.796;2024-03-07T07:02:11;101209.13;;;7.86;nan
62800;BME280;48842;51.046;13.796;2024-03-07T07:04:36;101210.22;;;7.93;nan
62800;BME280;48842;51.046;13.796;2024-03-07T07:07:08;101209.56;;;8.00;nan
62800;BME280;48842;51.046;13.796;2024-03-07T07:09:36;101213.94;;;8.03;nan
62800;BME280;48842;51.046;13.796;2024-03-07T07:12:01;101212.25;;;8.03;nan
62800;BME280;48842;51.046;13.796;2024-03-07T07:14:27;101218.28;;;8.02;nan
62800;BME280;48842;51.046;13.796;2024-03-07T07:16:53;101212.94;;;7.98;nan
62800;BME280;48842;51.046;13.796;2024-03-07T07:19:18;101213.69;;;7.94;nan
62800;BME280;48842;51.046;13.796;2024-03-07T07:21:43;101213.53;;;7.88;nan
62800;BME280;48842;51.046;13.796;2024-03-07T07:24:09;101215.09;;;7.82;nan
62800;BME280;48842;51.046;13.796;2024-03-07T07:26:34;101214.88;;;7.75;nan
62800;BME280;48842;51.046;13.796;2024-03-07T07:28:59;101215.56;;;7.69;nan
62800;BME280;48842;51.046;13.796;2024-03-07T07:31:24;101206.94;;;7.70;nan
62800;BME280;48842;51.046;13.796;2024-03-07T07:33:50;101221.88;;;7.76;nan
62800;BME280;48842;51.046;13.796;2024-03-07T07:36:15;101216.00;;;7.83;nan
62800;BME280;48842;51.046;13.796;2024-03-07T07:38:40;101216.22;;;7.91;nan
62800;BME280;48842;51.046;13.796;2024-03-07T07:41:06;101218.25;;;8.01;nan
62800;BME280;48842;51.046;13.796;2024-03-07T07:43:31;101222.84;;;8.10;nan
62800;BME280;48842;51.046;13.796;2024-03-07T07:45:58;101211.69;;;8.15;nan
62800;BME280;48842;51.046;13.796;2024-03-07T07:48:25;101218.03;;;8.24;nan
62800;BME280;48842;51.046;13.796;2024-03-07T07:50:50;101217.31;;;8.31;nan
62800;BME280;48842;51.046;13.796;2024-03-07T07:53:18;101213.19;;;8.37;nan
62800;BME280;48842;51.046;13.796;2024-03-07T07:55:44;101210.72;;;8.44;nan
62800;BME280;48842;51.046;13.796;2024-03-07T07:58:11;101207.47;;;8.51;nan
62800;BME280;48842;51.046;13.796;2024-03-07T08:00:37;101207.69;;;8.59;nan
62800;BME280;48842;51.046;13.796;2024-03-07T08:03:04;101214.72;;;8.63;nan
62800;BME280;48842;51.046;13.796;2024-03-07T08:05:34;101209.59;;;8.66;nan
62800;BME280;48842;51.046;13.796;2024-03-07T08:08:05;101215.84;;;8.71;nan
62800;BME280;48842;51.046;13.796;2024-03-07T08:10:32;101215.88;;;8.72;nan
62800;BME280;48842;51.046;13.796;2024-03-07T08:12:58;101223.81;;;8.77;nan
62800;BME280;48842;51.046;13.796;2024-03-07T08:15:25;101216.03;;;8.79;nan
62800;BME280;48842;51.046;13.796;2024-03-07T08:17:51;101213.44;;;8.80;nan
62800;BME280;48842;51.046;13.796;2024-03-07T08:20:18;101218.72;;;8.82;nan
62800;BME280;48842;51.046;13.796;2024-03-07T08:22:46;101210.88;;;8.82;nan
62800;BME280;48842;51.046;13.796;2024-03-07T08:25:13;101216.84;;;8.76;nan
62800;BME280;48842;51.046;13.796;2024-03-07T08:27:41;101211.53;;;8.73;nan
62800;BME280;48842;51.046;13.796;2024-03-07T08:30:10;101208.00;;;8.71;nan
62800;BME280;48842;51.046;13.796;2024-03-07T08:32:40;101210.53;;;8.68;nan
62800;BME280;48842;51.046;13.796;2024-03-07T08:35:06;101208.75;;;8.67;nan
62800;BME280;48842;51.046;13.796;2024-03-07T08:37:45;101208.75;;;8.67;nan
62800;BME280;48842;51.046;13.796;2024-03-07T08:40:11;101213.22;;;8.71;nan
62800;BME280;48842;51.046;13.796;2024-03-07T08:42:40;101208.06;;;8.74;nan
62800;BME280;48842;51.046;13.796;2024-03-07T08:45:07;101203.78;;;8.76;nan
62800;BME280;48842;51.046;13.796;2024-03-07T08:47:37;101212.47;;;8.75;nan
62800;BME280;48842;51.046;13.796;2024-03-07T08:50:03;101206.28;;;8.73;nan
62800;BME280;48842;51.046;13.796;2024-03-07T08:52:34;101211.53;;;8.73;nan
62800;BME280;48842;51.046;13.796;2024-03-07T08:55:02;101215.91;;;8.74;nan
62800;BME280;48842;51.046;13.796;2024-03-07T08:57:27;101218.59;;;8.77;nan
62800;BME280;48842;51.046;13.796;2024-03-07T08:59:52;101220.44;;;8.81;nan
62800;BME280;48842;51.046;13.796;2024-03-07T09:02:18;101215.53;;;8.94;nan
62800;BME280;48842;51.046;13.796;2024-03-07T09:04:43;101212.53;;;9.13;nan
62800;BME280;48842;51.046;13.796;2024-03-07T09:07:09;101210.31;;;9.30;nan
62800;BME280;48842;51.046;13.796;2024-03-07T09:09:35;101213.16;;;9.41;nan
62800;BME280;48842;51.046;13.796;2024-03-07T09:12:01;101209.88;;;9.50;nan
62800;BME280;48842;51.046;13.796;2024-03-07T09:14:27;101204.81;;;9.57;nan
62800;BME280;48842;51.046;13.796;2024-03-07T09:16:52;101208.50;;;9.66;nan
62800;BME280;48842;51.046;13.796;2024-03-07T09:19:18;101209.56;;;9.74;nan
62800;BME280;48842;51.046;13.796;2024-03-07T09:21:48;101205.41;;;9.85;nan
62800;BME280;48842;51.046;13.796;2024-03-07T09:24:15;101200.38;;;9.94;nan
62800;BME280;48842;51.046;13.796;2024-03-07T09:26:40;101197.13;;;10.06;nan
62800;BME280;48842;51.046;13.796;2024-03-07T09:29:06;101199.88;;;10.14;nan
62800;BME280;48842;51.046;13.796;2024-03-07T09:31:32;101195.66;;;10.19;nan
62800;BME280;48842;51.046;13.796;2024-03-07T09:33:57;101191.41;;;10.27;nan
62800;BME280;48842;51.046;13.796;2024-03-07T09:36:26;101189.84;;;10.34;nan
62800;BME280;48842;51.046;13.796;2024-03-07T09:38:52;101188.09;;;10.35;nan
62800;BME280;48842;51.046;13.796;2024-03-07T09:41:18;101190.75;;;10.36;nan
62800;BME280;48842;51.046;13.796;2024-03-07T09:43:46;101185.56;;;10.39;nan
62800;BME280;48842;51.046;13.796;2024-03-07T09:46:13;101185.72;;;10.47;nan
62800;BME280;48842;51.046;13.796;2024-03-07T09:48:39;101185.72;;;10.47;nan
62800;BME280;48842;51.046;13.796;2024-03-07T09:51:04;101180.53;;;10.50;nan
62800;BME280;48842;51.046;13.796;2024-03-07T09:53:30;101190.09;;;10.50;nan
62800;BME280;48842;51.046;13.796;2024-03-07T09:55:55;101183.97;;;10.47;nan
62800;BME280;48842;51.046;13.796;2024-03-07T09:58:22;101183.97;;;10.47;nan
62800;BME280;48842;51.046;13.796;2024-03-07T10:00:50;101189.13;;;10.43;nan
62800;BME280;48842;51.046;13.796;2024-03-07T10:03:18;101180.16;;;10.31;nan
62800;BME280;48842;51.046;13.796;2024-03-07T10:05:45;101178.28;;;10.24;nan
62800;BME280;48842;51.046;13.796;2024-03-07T10:08:11;101184.38;;;10.25;nan
62800;BME280;48842;51.046;13.796;2024-03-07T10:10:37;101187.09;;;10.29;nan
62800;BME280;48842;51.046;13.796;2024-03-07T10:13:02;101185.53;;;10.38;nan
62800;BME280;48842;51.046;13.796;2024-03-07T10:15:32;101194.47;;;10.49;nan
62800;BME280;48842;51.046;13.796;2024-03-07T10:17:58;101183.25;;;10.56;nan
62800;BME280;48842;51.046;13.796;2024-03-07T10:20:25;101189.44;;;10.61;nan
62800;BME280;48842;51.046;13.796;2024-03-07T10:22:50;101181.53;;;10.58;nan
62800;BME280;48842;51.046;13.796;2024-03-07T10:25:20;101182.41;;;10.57;nan
62800;BME280;48842;51.046;13.796;2024-03-07T10:27:50;101187.72;;;10.62;nan
62800;BME280;48842;51.046;13.796;2024-03-07T10:30:16;101186.03;;;10.65;nan
62800;BME280;48842;51.046;13.796;2024-03-07T10:32:46;101182.59;;;10.70;nan
62800;BME280;48842;51.046;13.796;2024-03-07T10:35:11;101180.09;;;10.76;nan
62800;BME280;48842;51.046;13.796;2024-03-07T10:37:38;101181.88;;;10.78;nan
62800;BME280;48842;51.046;13.796;2024-03-07T10:40:03;101186.25;;;10.78;nan
62800;BME280;48842;51.046;13.796;2024-03-07T10:42:45;101181.84;;;10.75;nan
62800;BME280;48842;51.046;13.796;2024-03-07T10:45:12;101186.19;;;10.75;nan
62800;BME280;48842;51.046;13.796;2024-03-07T10:47:41;101178.38;;;10.76;nan
62800;BME280;48842;51.046;13.796;2024-03-07T10:50:19;101184.44;;;10.74;nan
62800;BME280;48842;51.046;13.796;2024-03-07T10:52:57;101189.63;;;10.71;nan
62800;BME280;48842;51.046;13.796;2024-03-07T10:55:38;101193.97;;;10.70;nan
62800;BME280;48842;51.046;13.796;2024-03-07T10:58:33;101191.31;;;10.69;nan
62800;BME280;48842;51.046;13.796;2024-03-07T11:01:04;101189.66;;;10.74;nan
62800;BME280;48842;51.046;13.796;2024-03-07T11:03:31;101187.09;;;10.77;nan
62800;BME280;48842;51.046;13.796;2024-03-07T11:05:58;101191.53;;;10.81;nan
62800;BME280;48842;51.046;13.796;2024-03-07T11:08:24;101190.69;;;10.82;nan
62800;BME280;48842;51.046;13.796;2024-03-07T11:10:51;101183.63;;;10.78;nan
62800;BME280;48842;51.046;13.796;2024-03-07T11:13:17;101201.91;;;10.73;nan
62800;BME280;48842;51.046;13.796;2024-03-07T11:15:46;101198.31;;;10.68;nan
62800;BME280;48842;51.046;13.796;2024-03-07T11:18:13;101200.84;;;10.63;nan
62800;BME280;48842;51.046;13.796;2024-03-07T11:20:39;101192.94;;;10.60;nan
62800;BME280;48842;51.046;13.796;2024-03-07T11:25:53;101196.19;;;10.47;nan
62800;BME280;48842;51.046;13.796;2024-03-07T11:28:19;101195.06;;;10.34;nan
62800;BME280;48842;51.046;13.796;2024-03-07T11:30:45;101185.22;;;10.22;nan
62800;BME280;48842;51.046;13.796;2024-03-07T11:33:11;101187.66;;;10.14;nan
62800;BME280;48842;51.046;13.796;2024-03-07T11:35:40;101191.91;;;10.08;nan
62800;BME280;48842;51.046;13.796;2024-03-07T11:38:13;101193.56;;;10.04;nan
62800;BME280;48842;51.046;13.796;2024-03-07T11:43:04;101182.25;;;10.05;nan
62800;BME280;48842;51.046;13.796;2024-03-07T11:45:30;101186.63;;;10.05;nan
62800;BME280;48842;51.046;13.796;2024-03-07T11:48:00;101183.09;;;10.03;nan
62800;BME280;48842;51.046;13.796;2024-03-07T11:50:31;101172.59;;;10.01;nan
62800;BME280;48842;51.046;13.796;2024-03-07T11:53:00;101176.03;;;10.00;nan
62800;BME280;48842;51.046;13.796;2024-03-07T11:55:26;101177.72;;;9.96;nan
62800;BME280;48842;51.046;13.796;2024-03-07T11:57:53;101178.44;;;9.88;nan
62800;BME280;48842;51.046;13.796;2024-03-07T12:00:19;101177.41;;;9.81;nan
62800;BME280;48842;51.046;13.796;2024-03-07T12:02:45;101176.50;;;9.79;nan
62800;BME280;48842;51.046;13.796;2024-03-07T12:05:10;101169.50;;;9.78;nan
62800;BME280;48842;51.046;13.796;2024-03-07T12:07:36;101178.16;;;9.74;nan
62800;BME280;48842;51.046;13.796;2024-03-07T12:10:03;101173.69;;;9.70;nan
62800;BME280;48842;51.046;13.796;2024-03-07T12:12:30;101171.88;;;9.66;nan
62800;BME280;48842;51.046;13.796;2024-03-07T12:14:55;101175.38;;;9.68;nan
62800;BME280;48842;51.046;13.796;2024-03-07T12:17:21;101165.94;;;9.74;nan
62800;BME280;48842;51.046;13.796;2024-03-07T12:19:47;101162.59;;;9.82;nan
62800;BME280;48842;51.046;13.796;2024-03-07T12:22:13;101164.44;;;9.86;nan
62800;BME280;48842;51.046;13.796;2024-03-07T12:24:39;101159.28;;;9.89;nan
62800;BME280;48842;51.046;13.796;2024-03-07T12:27:15;101158.34;;;9.88;nan
62800;BME280;48842;51.046;13.796;2024-03-07T12:29:42;101160.94;;;9.87;nan
62800;BME280;48842;51.046;13.796;2024-03-07T12:32:09;101165.25;;;9.83;nan
62800;BME280;48842;51.046;13.796;2024-03-07T12:34:39;101156.41;;;9.78;nan
62800;BME280;48842;51.046;13.796;2024-03-07T12:37:06;101164.28;;;9.79;nan
62800;BME280;48842;51.046;13.796;2024-03-07T12:39:32;101153.94;;;9.84;nan
62800;BME280;48842;51.046;13.796;2024-03-07T12:42:02;101156.78;;;9.96;nan
62800;BME280;48842;51.046;13.796;2024-03-07T12:44:28;101150.94;;;10.10;nan
62800;BME280;48842;51.046;13.796;2024-03-07T12:46:53;101152.06;;;10.23;nan
62800;BME280;48842;51.046;13.796;2024-03-07T12:49:24;101148.84;;;10.36;nan
62800;BME280;48842;51.046;13.796;2024-03-07T12:51:53;101149.03;;;10.45;nan
62800;BME280;48842;51.046;13.796;2024-03-07T12:54:19;101149.03;;;10.47;nan
62800;BME280;48842;51.046;13.796;2024-03-07T12:56:44;101157.72;;;10.44;nan
62800;BME280;48842;51.046;13.796;2024-03-07T12:59:10;101148.09;;;10.43;nan
62800;BME280;48842;51.046;13.796;2024-03-07T13:01:35;101141.16;;;10.45;nan
62800;BME280;48842;51.046;13.796;2024-03-07T13:04:05;101140.31;;;10.48;nan
62800;BME280;48842;51.046;13.796;2024-03-07T13:06:33;101134.38;;;10.58;nan
62800;BME280;48842;51.046;13.796;2024-03-07T13:08:59;101136.47;;;10.78;nan